首页
METAR-TAF:

METAR-TAF

机场 :

空军基地

Niederstetten, 德国

纬度: 49-24N, 经度: 009-58E, 海拔: 468米

当前天气观测

该预报发布于1小时和2分钟前的01:20 UTC
风速4节,风向东转东北
温度 1°C
湿度 100%
气压 1011 hPa
能見度: 7000

METAR: ETHN 170120Z AUTO 07004KT 7000 // ////// 01/01 Q1011 ///

时间: 03:22 (02:22 UTC)


TAF: 丢失

超过4000个机场的气象观测和天气预报(METAR&TAF报告)。

可查询的气象台以黄色和红色小点在地图上表示。

将鼠标移到小点上方,可查看气象台名称。

然后点击查看天气观测和预报。

如需切换地图:点击带黑十字的绿色按钮放大地图;点击带横线的绿色按钮缩小地图;或者点击绿色箭头查看邻近地区的地图。


METAR-TAF: